Terminal Aerodrome Forecast
Issued by NWS

Home | Current Version | Previous Version | Text Only | Print | Product List | Glossary On
Versions: 1 2 3 4 5 6 7 8 9 10 11 12 13 14 15
000
FTUS46 KHNX 220534
TAFMER
TAF
KMER 220534Z 2206/2306 34005KT P6SM VCSH SCT040 BKN060
      TEMPO 2206/2209 5SM -SHRA BKN035
     FM220900 31005KT P6SM OVC050
      TEMPO 2209/2212 4SM -SHRA OVC040
     FM221500 32009KT 5SM HZ BKN050=

USA.gov is the U.S. government's official web portal to all federal, state and local government web resources and services.